M I D A S
Marine Information and Data Acquisition System
Tripno 1822 of the Zeeleeuw from 2009-12-08 08:14:36 to 2009-12-08 17:35:47
Back to CruiseResearch ActivitiesStationsMapUnderway DataData graphs

EquipmentUnitsComment
TimeDGPSUTC
LatitudeDGPSDM.mWGS84
LongitudeDGPSDM.mWGS84
HeadingGyrodeg 
SOGDGPSknotsSpeed over ground
COGDGPSdegCourse over ground
DepthEcho soundermeters200 kHz
Missing or incorrect values are displayed as -999
Navigation data collected by the RV Zeeleeuw from 2009-12-08 08:37:15 to 2009-12-08 17:41:43
Time Latitude Longitude Heading SOG COG Depth
2009-12-08 08:38:22 51°13.677 2°55.895 106 3.7 288 -999
2009-12-08 08:39:22 51°13.696 2°55.806 97.1 3.4 285 -999
2009-12-08 08:40:22 51°13.707 2°55.756 58.1 0.8 357 14.8
2009-12-08 08:41:20 51°13.71 2°55.738 19.6 1.5 350 13.6
2009-12-08 08:42:18 51°13.763 2°55.69 327.2 6.3 326 12.6
2009-12-08 08:43:18 51°13.88 2°55.603 337.7 8.5 338 11.1
2009-12-08 08:44:18 51°14.014 2°55.522 337.9 8.7 338 10.9
2009-12-08 08:45:18 51°14.147 2°55.427 331.7 8.8 332 10.9
2009-12-08 08:46:18 51°14.26 2°55.27 309.2 9.9 309 10.8
2009-12-08 08:47:18 51°14.367 2°55.045 304.9 11 307 11
2009-12-08 08:48:18 51°14.496 2°54.853 329.6 10.2 332 10.7
2009-12-08 08:49:18 51°14.652 2°54.728 324.9 10.2 324 9.9
2009-12-08 08:50:18 51°14.801 2°54.58 328.5 10.6 330 9.8
2009-12-08 08:51:18 51°14.953 2°54.441 330.6 10.4 331 9.7
2009-12-08 08:52:18 51°15.105 2°54.3 329.6 10.5 331 11.4
2009-12-08 08:53:22 51°15.26 2°54.165 329 10.2 329 10.3
2009-12-08 08:54:20 51°15.407 2°54.023 326.8 10.4 329 10.6
2009-12-08 08:55:18 51°15.551 2°53.88 328.2 10.5 329 10.6
2009-12-08 08:56:19 51°15.7 2°53.736 328.6 10.5 329 11.9
2009-12-08 08:57:18 51°15.846 2°53.593 327.9 10.4 329 -999
2009-12-08 08:58:18 51°15.994 2°53.451 328.1 10.3 326 11.6
2009-12-08 08:59:18 51°16.147 2°53.307 330.7 10.8 330 11.6
2009-12-08 09:00:18 51°16.308 2°53.186 335.2 10.5 335 11.4
2009-12-08 09:01:18 51°16.471 2°53.07 336.9 10.5 336 13
2009-12-08 09:02:18 51°16.635 2°52.953 335.1 10.8 336 11.1
2009-12-08 09:03:18 51°16.798 2°52.836 336.1 10.7 335 10.2
2009-12-08 09:04:19 51°16.959 2°52.729 338.7 10.5 337 9.1
2009-12-08 09:05:18 51°17.125 2°52.643 342.3 11 343 9.7
2009-12-08 09:06:18 51°17.301 2°52.573 347 11 352 9.8
2009-12-08 09:07:18 51°17.479 2°52.536 357.9 10.9 358 10.6
2009-12-08 09:08:18 51°17.663 2°52.539 1.5 10.9 4 9.5
2009-12-08 09:09:19 51°17.848 2°52.55 2.3 10.4 6 -999
2009-12-08 09:10:18 51°18.024 2°52.548 358.4 10.7 1 11.3
2009-12-08 09:11:18 51°18.2 2°52.554 359.6 10.8 5 11.1
2009-12-08 09:12:18 51°18.381 2°52.55 359.4 10.7 359 11.5
2009-12-08 09:13:18 51°18.564 2°52.547 0.3 11.2 2 11.4
2009-12-08 09:14:18 51°18.745 2°52.542 359.3 10.7 356 11.7
2009-12-08 09:15:18 51°18.926 2°52.542 359.8 11 355 12.3
2009-12-08 09:16:18 51°19.11 2°52.535 -999 11.1 -999 12.7
2009-12-08 09:17:18 51°19.289 2°52.532 359.9 11 2 14.3
2009-12-08 09:18:18 51°19.472 2°52.525 359.2 11 359 15.5
2009-12-08 09:19:18 51°19.651 2°52.521 359.6 11 -999 15.9
2009-12-08 09:20:18 51°19.832 2°52.518 1.2 10.9 3 16.4
2009-12-08 09:21:18 51°20.01 2°52.5 348.8 10.3 344 16.3
2009-12-08 09:22:20 51°20.162 2°52.374 321.4 10 320 15.9
2009-12-08 09:23:20 51°20.275 2°52.185 311.2 9.9 311 15.8
2009-12-08 09:24:20 51°20.384 2°51.981 310 10.5 311 14.3
2009-12-08 09:25:18 51°20.504 2°51.787 318.5 10.7 320 13.1
2009-12-08 09:26:18 51°20.639 2°51.612 323.9 10.6 326 14.4
2009-12-08 09:27:18 51°20.795 2°51.475 335.8 10.7 336 17.1
2009-12-08 09:28:18 51°20.956 2°51.362 341.5 10.3 344 18.5
2009-12-08 09:29:18 51°21.127 2°51.305 351.7 10.7 351 20.9
2009-12-08 09:30:18 51°21.302 2°51.263 353.4 10.4 354 -999
2009-12-08 09:31:18 51°21.478 2°51.255 3.1 10.4 1 23.6
2009-12-08 09:32:18 51°21.651 2°51.259 1 10.5 -999 24.4
2009-12-08 09:33:18 51°21.827 2°51.261 1.1 10.6 2 24.7
2009-12-08 09:34:18 51°22.001 2°51.278 12.4 10.5 14 23.3
2009-12-08 09:35:18 51°22.17 2°51.366 21.9 11 22 23.1
2009-12-08 09:36:18 51°22.337 2°51.467 21.1 10.6 18 22.9
2009-12-08 09:37:18 51°22.504 2°51.559 17.6 10.6 13 23.1
2009-12-08 09:38:18 51°22.672 2°51.651 19.6 10.8 22 22.5
2009-12-08 09:39:18 51°22.842 2°51.738 18.3 10.8 18 22.8
2009-12-08 09:40:18 51°23.012 2°51.827 21.6 10.5 21 23.2
2009-12-08 09:41:18 51°23.18 2°51.917 20.2 10.7 18 21.9
2009-12-08 09:42:18 51°23.346 2°52.005 17.4 10.7 9 17.6
2009-12-08 09:43:18 51°23.513 2°52.097 22.6 10.6 21 16.1
2009-12-08 09:44:18 51°23.682 2°52.179 17.3 10.7 11 16.4
2009-12-08 09:45:18 51°23.848 2°52.271 21.2 10.5 24 16.3
2009-12-08 09:46:18 51°24.016 2°52.358 21.2 10.7 25 18.8
2009-12-08 09:47:18 51°24.179 2°52.469 18.7 10.6 20 19.8
2009-12-08 09:48:18 51°24.353 2°52.488 1.5 10.3 359 17.2
2009-12-08 09:49:18 51°24.527 2°52.5 5.6 10.6 4 18.4
2009-12-08 09:50:18 51°24.701 2°52.531 7.9 10.7 12 19.2
2009-12-08 09:51:18 51°24.875 2°52.561 8.1 10.6 8 21.3
2009-12-08 09:52:18 51°25.049 2°52.589 5.9 10.5 6 22.5
2009-12-08 09:53:18 51°25.224 2°52.621 9.6 10.6 6 22.6
2009-12-08 09:54:18 51°25.398 2°52.661 10.7 10.5 13 23.4
2009-12-08 09:55:18 51°25.568 2°52.708 12.3 10.4 13 24.8
2009-12-08 09:56:18 51°25.74 2°52.752 9.8 10.5 4 25.3
2009-12-08 09:57:18 51°25.913 2°52.801 11 10.6 10 26.1
2009-12-08 09:58:18 51°26.082 2°52.85 10.8 10.3 3 26.3
2009-12-08 09:59:18 51°26.255 2°52.891 9.6 10.4 8 26.3
2009-12-08 10:00:18 51°26.427 2°52.934 8.2 10.4 4 26.3
2009-12-08 10:01:18 51°26.596 2°52.979 8.3 10.3 7 29.4
2009-12-08 10:02:18 51°26.767 2°53.026 10.4 10.5 11 27.8
2009-12-08 10:03:18 51°26.94 2°53.069 9.4 10.4 10 28.9
2009-12-08 10:04:18 51°27.112 2°53.112 8.1 10.5 5 26.7
2009-12-08 10:05:18 51°27.286 2°53.157 10.6 10.6 10 23.8
2009-12-08 10:06:18 51°27.458 2°53.204 10.1 10.4 6 20.5
2009-12-08 10:07:18 51°27.628 2°53.251 10.8 10.5 7 21
2009-12-08 10:08:18 51°27.802 2°53.294 9.3 10.7 11 20.9
2009-12-08 10:09:18 51°27.975 2°53.338 8.7 10.3 7 20.9
2009-12-08 10:10:18 51°28.147 2°53.39 13 10.6 7 20.8
2009-12-08 10:11:18 51°28.32 2°53.436 9.2 10.4 4 23.4
2009-12-08 10:12:18 51°28.493 2°53.483 10.2 10.3 3 22.6
2009-12-08 10:13:18 51°28.666 2°53.54 13.1 10.7 11 25.1
2009-12-08 10:14:18 51°28.838 2°53.607 14.4 10.7 21 26.1
2009-12-08 10:15:18 51°29.007 2°53.676 14.8 10.5 16 27.2
2009-12-08 10:16:18 51°29.177 2°53.739 11.9 10.4 10 28.1
2009-12-08 10:17:18 51°29.346 2°53.803 13.3 10.2 10 28.8
2009-12-08 10:18:18 51°29.513 2°53.869 16.5 10.4 19 29.1
2009-12-08 10:19:18 51°29.681 2°53.934 13.9 10.4 12 30.3
2009-12-08 10:20:18 51°29.851 2°53.991 13.8 10.4 12 30.5
2009-12-08 10:21:18 51°30.021 2°54.05 13.9 10.4 14 30.2
2009-12-08 10:22:18 51°30.189 2°54.106 11.4 10.4 3 31.6
2009-12-08 10:23:18 51°30.358 2°54.164 11.9 10.3 7 33.7
2009-12-08 10:24:18 51°30.527 2°54.231 16.8 10.5 19 32
2009-12-08 10:25:18 51°30.695 2°54.295 15.5 10.5 14 27.2
2009-12-08 10:26:18 51°30.862 2°54.355 14.3 10.4 21 18.8
2009-12-08 10:27:18 51°31.028 2°54.419 15.4 10.5 13 17.5
2009-12-08 10:28:17 51°31.194 2°54.478 13 10.3 3 17.9
2009-12-08 10:29:19 51°31.367 2°54.544 15.5 10.4 10 19
2009-12-08 10:30:19 51°31.536 2°54.607 13.4 10.4 13 19.5
2009-12-08 10:31:19 51°31.706 2°54.667 13.2 10.6 17 19.8
2009-12-08 10:32:19 51°31.876 2°54.73 14.6 10.5 18 17.8
2009-12-08 10:33:19 51°32.046 2°54.793 15.9 10.6 15 18.1
2009-12-08 10:34:19 51°32.215 2°54.858 15 10.6 18 18.5
2009-12-08 10:35:19 51°32.361 2°54.912 14.2 7.7 15 22
2009-12-08 10:36:19 51°32.469 2°54.921 7.1 5.2 16 22
2009-12-08 10:37:19 51°32.488 2°55.017 110.1 4 120 22.5
2009-12-08 10:38:19 51°32.446 2°55.061 156.2 1.9 162 22.6
2009-12-08 10:39:19 51°32.422 2°55.072 170.7 1.3 160 23.4
2009-12-08 10:40:19 51°32.404 2°55.078 183 1 167 22.6
2009-12-08 10:41:19 51°32.392 2°55.083 193.6 0.7 161 22.6
2009-12-08 10:42:19 51°32.382 2°55.089 200.3 0.6 170 22.2
2009-12-08 10:43:19 51°32.376 2°55.099 190.3 0.5 156 22.4
2009-12-08 10:44:19 51°32.369 2°55.11 183.8 0.4 147 22.9
2009-12-08 10:45:19 51°32.364 2°55.122 179.6 0.5 124 22.9
2009-12-08 10:46:19 51°32.359 2°55.134 180.5 1 115 22.7
2009-12-08 10:47:19 51°32.353 2°55.145 180.1 0.5 133 22.8
2009-12-08 10:48:19 51°32.345 2°55.159 185.3 1.5 113 22.9
2009-12-08 10:49:19 51°32.337 2°55.17 183.4 0.6 130 22.9
2009-12-08 10:50:19 51°32.33 2°55.181 181.9 0.5 137 23.4
2009-12-08 10:51:19 51°32.324 2°55.193 180.8 0.5 129 22.5
2009-12-08 10:52:19 51°32.316 2°55.203 183.5 0.4 171 22.7
2009-12-08 10:53:19 51°32.308 2°55.215 186.2 0.8 129 22.1
2009-12-08 10:54:19 51°32.301 2°55.226 182.7 0.6 142 22.5
2009-12-08 10:55:19 51°32.293 2°55.237 178.2 0.6 132 22.3
2009-12-08 10:56:19 51°32.286 2°55.251 178.2 0.7 131 22.3
2009-12-08 10:57:19 51°32.279 2°55.261 179.6 0.7 124 22
2009-12-08 10:58:19 51°32.271 2°55.27 177.6 0.6 135 22.2
2009-12-08 10:59:19 51°32.265 2°55.28 177.6 0.5 117 21.8
2009-12-08 11:00:19 51°32.259 2°55.29 176 0.5 151 21.5
2009-12-08 11:01:19 51°32.245 2°55.304 162.3 2 162 21.8
2009-12-08 11:02:19 51°32.211 2°55.352 105.9 3 114 21.3
2009-12-08 11:03:19 51°32.226 2°55.414 30.3 2.6 37 20.9
2009-12-08 11:04:19 51°32.274 2°55.445 16.1 3.6 18 19.9
2009-12-08 11:05:19 51°32.351 2°55.492 18.5 6 20 17.6
2009-12-08 11:06:19 51°32.445 2°55.55 19 5.5 18 20.9
2009-12-08 11:07:19 51°32.503 2°55.517 312.8 3.1 303 22.8
2009-12-08 11:08:19 51°32.501 2°55.442 248.3 2.5 236 20.9
2009-12-08 11:09:19 51°32.474 2°55.42 209.2 1.5 193 22.8
2009-12-08 11:10:19 51°32.452 2°55.421 202.7 1.2 174 22.5
2009-12-08 11:11:19 51°32.436 2°55.426 195.8 0.8 172 21.3
2009-12-08 11:12:19 51°32.422 2°55.435 187.8 0.8 171 20.8
2009-12-08 11:13:19 51°32.411 2°55.441 182.6 0.8 160 21
2009-12-08 11:14:19 51°32.399 2°55.448 179.4 1 139 19.9
2009-12-08 11:15:19 51°32.387 2°55.453 180.6 0.8 173 19
2009-12-08 11:16:19 51°32.374 2°55.458 178 0.7 192 17.6
2009-12-08 11:17:19 51°32.363 2°55.465 174.2 0.9 153 19.2
2009-12-08 11:18:19 51°32.35 2°55.471 174.2 0.8 189 19.1
2009-12-08 11:19:19 51°32.336 2°55.478 172.4 0.8 157 20.4
2009-12-08 11:20:19 51°32.324 2°55.487 171.3 0.8 158 21.1
2009-12-08 11:21:19 51°32.31 2°55.494 172.8 1 159 21
2009-12-08 11:22:19 51°32.294 2°55.501 178.1 1 164 22
2009-12-08 11:23:19 51°32.279 2°55.507 182.3 0.9 167 22.1
2009-12-08 11:24:19 51°32.264 2°55.513 183.6 0.9 168 21.3
2009-12-08 11:25:19 51°32.248 2°55.521 181.4 0.8 176 20.8
2009-12-08 11:26:19 51°32.234 2°55.532 175 0.9 149 21.4
2009-12-08 11:27:19 51°32.219 2°55.54 180.5 1 159 21.5
2009-12-08 11:28:19 51°32.203 2°55.548 179 1 165 20.2
2009-12-08 11:29:19 51°32.188 2°55.557 176.3 1.1 153 20.7
2009-12-08 11:30:19 51°32.173 2°55.563 175 0.9 168 19.4
2009-12-08 11:31:19 51°32.156 2°55.57 175.8 1.1 186 18.6
2009-12-08 11:32:19 51°32.138 2°55.577 181.5 1.2 172 20.2
2009-12-08 11:33:19 51°32.12 2°55.584 183.6 1.1 170 20.8
2009-12-08 11:34:19 51°32.102 2°55.588 188.1 1.1 172 20.6
2009-12-08 11:35:19 51°32.083 2°55.596 186.4 1.1 172 20.3
2009-12-08 11:36:19 51°32.064 2°55.602 189.5 1.1 174 18.3
2009-12-08 11:37:19 51°32.044 2°55.607 189.9 1.2 172 18.3
2009-12-08 11:38:19 51°32.024 2°55.612 184.8 1.4 159 19.9
2009-12-08 11:39:19 51°32.005 2°55.62 179.6 1.1 160 20.2
2009-12-08 11:40:19 51°31.966 2°55.636 146.8 3.8 158 19.4
2009-12-08 11:41:19 51°31.941 2°55.708 62.5 2.6 72 18.8
2009-12-08 11:42:19 51°31.982 2°55.734 355.8 3.9 354 20.7
2009-12-08 11:43:19 51°32.081 2°55.679 346.9 7.3 345 20
2009-12-08 11:44:19 51°32.2 2°55.629 351.5 7.3 350 19.7
2009-12-08 11:45:19 51°32.322 2°55.611 0.3 7.4 1 22.7
2009-12-08 11:46:19 51°32.44 2°55.57 343.5 7.2 339 21.1
2009-12-08 11:47:19 51°32.542 2°55.476 331 6.3 324 22.9
2009-12-08 11:48:19 51°32.591 2°55.4 312.2 2.7 300 23.2
2009-12-08 11:49:19 51°32.588 2°55.342 262.2 2.5 238 23.4
2009-12-08 11:50:19 51°32.561 2°55.32 219.6 1.7 183 23
2009-12-08 11:51:19 51°32.535 2°55.318 199 1.5 192 22.1
2009-12-08 11:52:19 51°32.512 2°55.323 188.8 1.6 150 19.4
2009-12-08 11:53:18 51°32.491 2°55.326 184 1.2 172 20.5
2009-12-08 11:54:19 51°32.472 2°55.332 177.1 1.2 165 21.3
2009-12-08 11:55:19 51°32.454 2°55.338 172.7 1.1 173 21.8
2009-12-08 11:56:19 51°32.434 2°55.345 172.2 1.2 175 21.8
2009-12-08 11:57:19 51°32.414 2°55.351 175.2 1.2 160 22.2
2009-12-08 11:58:19 51°32.394 2°55.358 174.8 1.2 165 22.5
2009-12-08 11:59:19 51°32.376 2°55.365 173.7 1.1 159 22.5
2009-12-08 12:00:18 51°32.358 2°55.371 170.7 1.1 154 22.5
2009-12-08 12:01:19 51°32.34 2°55.377 172.6 1.1 167 21.6
2009-12-08 12:02:19 51°32.319 2°55.38 175.2 1.3 183 18.9
2009-12-08 12:03:19 51°32.298 2°55.384 177.6 1.3 175 19.2
2009-12-08 12:04:19 51°32.277 2°55.389 174 1.2 177 20.3
2009-12-08 12:05:19 51°32.258 2°55.397 171.9 1.1 153 20.9
2009-12-08 12:06:19 51°32.241 2°55.404 167.4 1.1 150 21.2
2009-12-08 12:07:19 51°32.222 2°55.41 169.5 1.3 171 19.5
2009-12-08 12:08:19 51°32.199 2°55.414 175.5 1.5 179 18.3
2009-12-08 12:09:19 51°32.17 2°55.419 175.6 2.6 180 20.1
2009-12-08 12:10:19 51°32.109 2°55.393 217.1 4.8 209 20.8
2009-12-08 12:11:19 51°32.074 2°55.289 287.5 4 273 22.1
2009-12-08 12:12:19 51°32.139 2°55.204 337.1 7.3 331 21.5
2009-12-08 12:13:19 51°32.265 2°55.092 335.2 9.4 331 22.7
2009-12-08 12:14:19 51°32.406 2°54.963 334.5 9.8 329 20.5
2009-12-08 12:15:19 51°32.547 2°54.831 334.8 9.7 331 22.9
2009-12-08 12:16:19 51°32.698 2°54.747 353.6 9.7 349 22.7
2009-12-08 12:17:19 51°32.857 2°54.745 9.4 9.5 10 23.3
2009-12-08 12:18:19 51°33.012 2°54.791 12.9 9.7 5 23
2009-12-08 12:19:19 51°33.166 2°54.857 21.7 9.7 28 25.3
2009-12-08 12:20:19 51°33.306 2°54.973 31.8 9.3 34 25.1
2009-12-08 12:21:19 51°33.381 2°55.179 75.6 9.4 91 26
2009-12-08 12:22:19 51°33.328 2°55.434 97.3 9 108 26.3
2009-12-08 12:23:19 51°33.3 2°55.567 86.4 3.6 110 26.3
2009-12-08 12:24:19 51°33.287 2°55.628 72.2 1.9 118 26.7
2009-12-08 12:25:19 51°33.275 2°55.662 60 1.2 122 26.4
2009-12-08 12:26:19 51°33.263 2°55.679 42.2 1.1 153 26.2
2009-12-08 12:27:19 51°33.248 2°55.686 30.6 1 177 26
2009-12-08 12:28:19 51°33.231 2°55.688 21.1 1 181 25.4
2009-12-08 12:29:19 51°33.213 2°55.691 18.8 1 166 25
2009-12-08 12:30:19 51°33.204 2°55.695 12.6 0.3 138 25.5
2009-12-08 12:31:19 51°33.21 2°55.701 9.3 1.1 14 24.9
2009-12-08 12:32:35 51°33.284 2°55.737 23.6 6.2 28 23.6
2009-12-08 12:33:47 51°33.372 2°55.899 58.6 6.8 68 25
2009-12-08 12:34:47 51°33.377 2°56.006 72.3 2.9 99 24.4
2009-12-08 12:35:47 51°33.369 2°56.06 61 1.6 113 25.1
2009-12-08 12:36:47 51°33.359 2°56.085 47.2 1.1 140 26.1
2009-12-08 12:37:47 51°33.347 2°56.096 33.8 1 160 26.6
2009-12-08 12:38:47 51°33.331 2°56.097 24.8 0.9 189 26.1
2009-12-08 12:39:47 51°33.312 2°56.097 13.1 1 182 25.8
2009-12-08 12:40:47 51°33.293 2°56.098 11.2 1.3 168 26.6
2009-12-08 12:41:47 51°33.273 2°56.099 9.5 1.2 187 27.1
2009-12-08 12:42:47 51°33.254 2°56.099 4.4 1.1 173 26.6
2009-12-08 12:43:47 51°33.235 2°56.1 5.3 1.1 183 26.6
2009-12-08 12:44:47 51°33.213 2°56.104 7.4 1.4 169 26.8
2009-12-08 12:45:47 51°33.19 2°56.106 16.9 1.5 176 25.5
2009-12-08 12:46:47 51°33.165 2°56.108 23.7 1.3 182 25.4
2009-12-08 12:47:47 51°33.141 2°56.11 21.6 1.4 181 25.7
2009-12-08 12:48:47 51°33.116 2°56.111 20.9 1.6 179 23.5
2009-12-08 12:49:47 51°33.092 2°56.113 23.6 1.5 177 24.7
2009-12-08 12:50:47 51°33.075 2°56.119 20.4 0.7 93 24.8
2009-12-08 12:51:47 51°33.111 2°56.144 16.6 4.4 18 24.8
2009-12-08 12:52:47 51°33.188 2°56.217 31.3 5.9 37 26.3
2009-12-08 12:53:47 51°33.274 2°56.276 16.6 5.3 18 27.7
2009-12-08 12:54:47 51°33.318 2°56.288 5.1 1.2 -999 25.8
2009-12-08 12:55:47 51°33.325 2°56.29 3.9 0.2 150 26.5
2009-12-08 12:56:47 51°33.315 2°56.291 1.9 0.9 170 25.8
2009-12-08 12:57:47 51°33.299 2°56.29 356.4 1 183 26.4
2009-12-08 12:58:47 51°33.28 2°56.294 2.5 1.2 176 27.2
2009-12-08 12:59:47 51°33.259 2°56.299 9.5 1.3 173 27.3
2009-12-08 13:00:47 51°33.239 2°56.303 9.7 1.2 177 27.3
2009-12-08 13:01:47 51°33.218 2°56.307 12.6 1.4 176 27.2
2009-12-08 13:02:47 51°33.197 2°56.309 11.3 1.3 173 26.3
2009-12-08 13:03:47 51°33.175 2°56.311 12.1 1.4 179 25.9
2009-12-08 13:04:47 51°33.153 2°56.316 13.6 1.5 161 26.2
2009-12-08 13:05:47 51°33.13 2°56.318 13.4 1.4 175 26
2009-12-08 13:06:47 51°33.108 2°56.322 17.8 1.3 175 26.3
2009-12-08 13:07:47 51°33.087 2°56.328 20.4 1.2 172 25.3
2009-12-08 13:08:47 51°33.066 2°56.331 15.6 1.4 165 25.4
2009-12-08 13:09:47 51°33.046 2°56.334 11 1.2 171 23.4
2009-12-08 13:10:47 51°33.025 2°56.337 10.5 1.2 178 25.6
2009-12-08 13:11:47 51°33.002 2°56.344 17.1 1.2 173 25.8
2009-12-08 13:12:47 51°32.978 2°56.348 22.6 1.6 175 26
2009-12-08 13:13:47 51°32.951 2°56.352 27.7 1.5 172 24.8
2009-12-08 13:14:47 51°32.923 2°56.353 31.3 1.6 172 23.5
2009-12-08 13:15:47 51°32.936 2°56.386 30.9 4.3 40 25
2009-12-08 13:16:47 51°33.005 2°56.502 39.5 6.5 39 23
2009-12-08 13:17:47 51°33.099 2°56.59 22.4 6.6 23 24.2
2009-12-08 13:18:47 51°33.19 2°56.635 11.1 3.7 7 23.8
2009-12-08 13:19:47 51°33.217 2°56.641 1.8 0.5 40 25.3
2009-12-08 13:20:47 51°33.215 2°56.643 354.3 0.4 179 24.7
2009-12-08 13:21:47 51°33.203 2°56.645 355.3 0.8 182 25.1
2009-12-08 13:22:47 51°33.186 2°56.649 359 1 172 25.1
2009-12-08 13:23:47 51°33.168 2°56.655 -999 1.1 176 25.4
2009-12-08 13:24:47 51°33.149 2°56.662 3.9 1.3 175 25.4
2009-12-08 13:25:47 51°33.126 2°56.67 8.3 1.4 159 26.4
2009-12-08 13:26:48 51°33.103 2°56.677 14.2 1.4 175 25.5
2009-12-08 13:27:48 51°33.078 2°56.682 20.2 1.4 175 24.3
2009-12-08 13:28:48 51°33.053 2°56.685 20.9 1.5 178 24.7
2009-12-08 13:29:48 51°33.028 2°56.691 23.8 1.4 172 25
2009-12-08 13:30:48 51°33.006 2°56.697 18.9 1.5 165 24.3
2009-12-08 13:31:48 51°32.984 2°56.704 17.9 1.3 171 23.5
2009-12-08 13:32:48 51°32.963 2°56.711 12.5 1.4 162 25.7
2009-12-08 13:33:48 51°32.941 2°56.716 12.3 1.3 173 24.4
2009-12-08 13:34:48 51°32.919 2°56.723 12.2 1.3 172 23.3
2009-12-08 13:35:48 51°32.899 2°56.729 10.9 1.1 170 23.3
2009-12-08 13:36:48 51°32.88 2°56.736 10.2 1.4 163 23.7
2009-12-08 13:37:48 51°32.862 2°56.743 12.2 1.2 163 23.3
2009-12-08 13:38:48 51°32.845 2°56.749 8.3 1.1 170 24.4
2009-12-08 13:39:48 51°32.828 2°56.754 4.8 1.1 160 24.8
2009-12-08 13:40:48 51°32.81 2°56.761 6.7 1.1 173 23.2
2009-12-08 13:41:48 51°32.791 2°56.769 8.2 1.3 163 22.6
2009-12-08 13:42:48 51°32.777 2°56.778 9.3 0.7 71 22.6
2009-12-08 13:43:48 51°32.839 2°56.781 356.5 6 352 23.9
2009-12-08 13:44:48 51°32.956 2°56.75 354.2 7.5 349 25
2009-12-08 13:45:48 51°33.081 2°56.715 352.2 7.7 350 25.3
2009-12-08 13:46:48 51°33.171 2°56.679 343.1 3 337 23.9
2009-12-08 13:47:48 51°33.184 2°56.659 331 0.4 268 25.3
2009-12-08 13:48:48 51°33.176 2°56.658 330.9 0.7 166 23.9
2009-12-08 13:49:48 51°33.16 2°56.666 344 1 170 25.4
2009-12-08 13:50:48 51°33.142 2°56.673 358.5 1.2 175 25.9
2009-12-08 13:51:48 51°33.122 2°56.682 10.5 1.3 159 26.2
2009-12-08 13:52:48 51°33.101 2°56.691 19.7 1.4 169 26.1
2009-12-08 13:53:48 51°33.08 2°56.699 21.7 1.2 168 25.4
2009-12-08 13:54:48 51°33.063 2°56.708 19.1 1.3 152 24.9
2009-12-08 13:55:48 51°33.045 2°56.717 11.7 1.2 159 25.2
2009-12-08 13:56:48 51°33.027 2°56.726 7 1.2 162 25.1
2009-12-08 13:57:48 51°33.007 2°56.734 5 1.3 164 25.1
2009-12-08 13:58:48 51°32.986 2°56.741 8 1.3 167 23.4
2009-12-08 13:59:48 51°32.967 2°56.75 10 1.1 167 25
2009-12-08 14:00:48 51°32.947 2°56.76 9.6 1.2 170 25.5
2009-12-08 14:01:48 51°32.927 2°56.769 9.9 1.1 160 25.2
2009-12-08 14:02:48 51°32.908 2°56.778 11.5 1.3 163 24.7
2009-12-08 14:03:48 51°32.887 2°56.785 12.9 1.2 171 23.9
2009-12-08 14:04:48 51°32.867 2°56.792 13.2 1.4 162 23.2
2009-12-08 14:05:48 51°32.846 2°56.801 13 1.3 166 23.4
2009-12-08 14:06:48 51°32.826 2°56.81 17.2 1.2 169 24.5
2009-12-08 14:07:48 51°32.806 2°56.82 19.7 1.3 156 23.9
2009-12-08 14:08:48 51°32.789 2°56.83 17.5 1 166 23
2009-12-08 14:09:48 51°32.771 2°56.841 15 1 155 22
2009-12-08 14:10:48 51°32.761 2°56.853 11.2 0.9 41 21.8
2009-12-08 14:11:48 51°32.833 2°56.851 354.8 7.2 355 24.3
2009-12-08 14:12:48 51°32.968 2°56.831 354.6 8.5 355 25.3
2009-12-08 14:13:48 51°33.109 2°56.807 357.1 7.8 356 26.1
2009-12-08 14:14:48 51°33.174 2°56.785 342.7 1.7 343 26.2
2009-12-08 14:15:48 51°33.179 2°56.781 335.3 0.3 119 26.3
2009-12-08 14:16:48 51°33.17 2°56.788 338.7 0.9 156 25.9
2009-12-08 14:17:48 51°33.155 2°56.8 355 1.1 159 25
2009-12-08 14:18:48 51°33.137 2°56.812 15.4 1.1 154 24.3
2009-12-08 14:19:48 51°33.119 2°56.823 20.5 1.1 155 23.7
2009-12-08 14:20:48 51°33.101 2°56.837 20 1.1 153 25
2009-12-08 14:21:48 51°33.086 2°56.847 9 1.1 157 25.8
2009-12-08 14:22:48 51°33.07 2°56.859 6.2 1 158 25.4
2009-12-08 14:23:48 51°33.056 2°56.874 7.9 1.1 140 25.8
2009-12-08 14:24:48 51°33.041 2°56.885 4.2 0.8 161 25.1
2009-12-08 14:25:48 51°33.027 2°56.9 4.4 1.2 145 25.7
2009-12-08 14:26:48 51°33.011 2°56.912 3.2 1.3 155 24.8
2009-12-08 14:27:48 51°32.994 2°56.927 7.3 1.1 144 24.4
2009-12-08 14:28:48 51°32.983 2°56.945 10.7 0.9 149 25.4
2009-12-08 14:29:48 51°32.969 2°56.961 11.3 0.9 149 25.4
2009-12-08 14:30:48 51°32.955 2°56.976 7.8 0.9 149 25
2009-12-08 14:31:48 51°32.939 2°56.991 7.3 1 158 24.5
2009-12-08 14:32:48 51°32.924 2°57.008 11.5 0.9 147 24.1
2009-12-08 14:33:48 51°32.909 2°57.027 11.5 1.1 135 24.1
2009-12-08 14:34:48 51°32.895 2°57.045 11.3 1.2 139 23.8
2009-12-08 14:36:00 51°32.877 2°57.065 11 1.2 142 23.8
2009-12-08 14:37:15 51°32.857 2°57.086 11 1.1 145 23.5
2009-12-08 14:38:15 51°32.842 2°57.106 11.7 1.2 139 24.2
2009-12-08 14:39:15 51°32.828 2°57.124 10.6 1.2 139 23.5
2009-12-08 14:40:15 51°32.812 2°57.144 11.1 1.2 139 23.2
2009-12-08 14:41:15 51°32.797 2°57.164 12.6 1.1 143 22.7
2009-12-08 14:42:15 51°32.781 2°57.185 12.8 1.2 141 22.7
2009-12-08 14:43:15 51°32.766 2°57.207 13 1.2 134 22.1
2009-12-08 14:44:15 51°32.754 2°57.23 12.4 1 124 22
2009-12-08 14:45:15 51°32.742 2°57.252 11.8 1.1 129 21.9
2009-12-08 14:46:15 51°32.729 2°57.273 9.2 1.1 137 22.5
2009-12-08 14:47:15 51°32.717 2°57.295 7.1 1.1 136 22.3
2009-12-08 14:48:15 51°32.706 2°57.318 3.5 0.9 132 21.9
2009-12-08 14:49:15 51°32.694 2°57.339 1.5 1.1 134 21.9
2009-12-08 14:50:15 51°32.682 2°57.365 10 1.2 131 21.2
2009-12-08 14:51:15 51°32.667 2°57.39 13.7 1 133 21.3
2009-12-08 14:52:15 51°32.655 2°57.416 14.9 1 121 21
2009-12-08 14:53:15 51°32.646 2°57.442 9.5 1.1 122 20.9
2009-12-08 14:54:15 51°32.642 2°57.467 1.7 1.2 47 20.8
2009-12-08 14:55:15 51°32.68 2°57.461 331.9 3.6 336 20.7
2009-12-08 14:56:15 51°32.746 2°57.372 310.7 6.2 308 21.8
2009-12-08 14:57:15 51°32.809 2°57.204 298.7 7.9 295 23.7
2009-12-08 14:58:15 51°32.871 2°57.013 302.2 8 299 23.9
2009-12-08 14:59:15 51°32.948 2°56.837 313.4 7.3 315 23.5
2009-12-08 15:00:15 51°33.002 2°56.777 328 2.4 338 25.2
2009-12-08 15:01:15 51°33.034 2°56.765 336 1.7 354 25
2009-12-08 15:02:15 51°33.059 2°56.769 339.5 1.4 17 26.6
2009-12-08 15:03:15 51°33.078 2°56.778 341.4 1.2 19 26.8
2009-12-08 15:04:15 51°33.097 2°56.789 344.1 1.1 20 27.2
2009-12-08 15:05:15 51°33.115 2°56.796 340.8 1 -999 25.2
2009-12-08 15:06:15 51°33.131 2°56.805 339.1 1 18 24.9
2009-12-08 15:07:15 51°33.155 2°56.804 329.3 1.9 342 26.3
2009-12-08 15:08:15 51°33.174 2°56.742 263.1 3.2 246 26.7
2009-12-08 15:09:15 51°33.119 2°56.705 201.8 5.2 194 27.7
2009-12-08 15:10:15 51°33.043 2°56.667 210.1 3.8 199 25.9
2009-12-08 15:11:15 51°32.958 2°56.628 206.2 8.2 200 26.5
2009-12-08 15:12:15 51°32.806 2°56.522 209.8 10.5 208 25.5
2009-12-08 15:13:16 51°32.65 2°56.389 211.8 10.2 209 -999
2009-12-08 15:14:15 51°32.509 2°56.229 215.7 10.7 208 21.7
2009-12-08 15:15:15 51°32.348 2°56.111 215.5 10.3 212 22.6
2009-12-08 15:16:15 51°32.24 2°55.968 230.6 5.8 224 24.4
2009-12-08 15:17:15 51°32.205 2°55.877 252 2.7 236 19.8
2009-12-08 15:18:15 51°32.191 2°55.824 283.8 1.6 293 22.5
2009-12-08 15:19:15 51°32.198 2°55.833 331 0.8 68 22.4
2009-12-08 15:20:15 51°32.202 2°55.86 341.3 1.1 94 21.7
2009-12-08 15:21:15 51°32.201 2°55.896 346.3 1.4 97 19.7
2009-12-08 15:22:15 51°32.198 2°55.934 357.4 1.4 98 23.8
2009-12-08 15:23:15 51°32.195 2°55.971 0.5 1.3 91 23.5
2009-12-08 15:24:15 51°32.223 2°55.969 304.9 2.5 308 24.3
2009-12-08 15:25:15 51°32.217 2°55.928 235.2 1.5 197 23.7
2009-12-08 15:26:15 51°32.195 2°55.944 204.3 1.5 138 23.6
2009-12-08 15:27:15 51°32.181 2°55.979 192.6 1.6 113 24.2
2009-12-08 15:28:15 51°32.173 2°56.019 182.5 1.5 105 24.5
2009-12-08 15:29:15 51°32.166 2°56.061 173.1 1.5 100 23.8
2009-12-08 15:30:15 51°32.157 2°56.105 170.1 1.6 107 23.5
2009-12-08 15:31:15 51°32.153 2°56.144 165.6 1.5 103 22.8
2009-12-08 15:32:15 51°32.15 2°56.186 165.4 1.6 92 22.7
2009-12-08 15:33:15 51°32.148 2°56.229 166.3 1.5 91 20.6
2009-12-08 15:34:14 51°32.146 2°56.27 165.2 1.4 100 21.5
2009-12-08 15:35:14 51°32.143 2°56.312 166.4 1.5 95 22.3
2009-12-08 15:36:14 51°32.129 2°56.357 169.5 2.6 139 22.1
2009-12-08 15:37:15 51°32.074 2°56.39 188.9 4.9 175 21.3
2009-12-08 15:38:14 51°31.974 2°56.328 209.2 9 198 22.7
2009-12-08 15:39:15 51°31.807 2°56.267 196 10.4 192 21.9
2009-12-08 15:40:14 51°31.636 2°56.218 195.7 10.6 192 21.1
2009-12-08 15:41:15 51°31.459 2°56.167 195.1 10.7 190 20.8
2009-12-08 15:42:14 51°31.287 2°56.113 196.8 10.2 190 23.3
2009-12-08 15:43:15 51°31.115 2°56.055 197.5 10.1 194 33.8
2009-12-08 15:44:14 51°30.949 2°55.993 198 10.5 193 38
2009-12-08 15:45:14 51°30.78 2°55.928 198.5 10.5 191 38.6
2009-12-08 15:46:14 51°30.616 2°55.866 197.5 10.1 191 36.1
2009-12-08 15:47:14 51°30.452 2°55.808 198.9 10.3 190 35.5
2009-12-08 15:48:14 51°30.285 2°55.747 197.6 10.3 196 33.4
2009-12-08 15:49:14 51°30.113 2°55.696 196.5 10.3 192 33.2
2009-12-08 15:50:14 51°29.943 2°55.647 196.8 10.3 189 32.7
2009-12-08 15:51:14 51°29.775 2°55.595 196.1 10.3 190 30.7
2009-12-08 15:52:14 51°29.606 2°55.545 197 10.2 194 30.8
2009-12-08 15:53:15 51°29.435 2°55.491 195.6 10.3 192 29.7
2009-12-08 15:54:14 51°29.269 2°55.435 196.8 10.4 191 28.2
2009-12-08 15:55:15 51°29.097 2°55.377 195.5 10.2 190 27.9
2009-12-08 15:56:14 51°28.932 2°55.324 196.1 10.3 192 25.7
2009-12-08 15:57:14 51°28.763 2°55.267 197.4 10.2 194 24.2
2009-12-08 15:58:14 51°28.595 2°55.212 197 10.3 194 24.7
2009-12-08 15:59:14 51°28.428 2°55.155 196.2 10.2 193 24.4
2009-12-08 16:00:14 51°28.262 2°55.101 197.3 10.1 192 26.3
2009-12-08 16:01:14 51°28.097 2°55.046 197.2 10 196 26.2
2009-12-08 16:02:15 51°27.93 2°54.99 194.6 9.8 189 30
2009-12-08 16:03:14 51°27.77 2°54.934 198.2 10 196 30.2
2009-12-08 16:04:15 51°27.602 2°54.884 196.2 10.1 189 31.7
2009-12-08 16:05:14 51°27.441 2°54.833 196.3 10.1 192 31.8
2009-12-08 16:06:15 51°27.273 2°54.782 196.6 10 193 32.2
2009-12-08 16:07:14 51°27.112 2°54.732 196.1 9.8 195 31.4
2009-12-08 16:08:14 51°26.949 2°54.682 196 9.9 190 30.2
2009-12-08 16:09:14 51°26.787 2°54.634 196.9 9.9 192 27.6
2009-12-08 16:10:14 51°26.623 2°54.586 197.5 9.9 193 26.9
2009-12-08 16:11:15 51°26.457 2°54.538 197.3 9.9 192 25.7
2009-12-08 16:12:14 51°26.296 2°54.494 195.9 9.9 191 26.9
2009-12-08 16:13:15 51°26.13 2°54.445 196.2 10.1 190 26.6
2009-12-08 16:14:14 51°25.968 2°54.393 196.8 10.2 188 26.3
2009-12-08 16:15:15 51°25.801 2°54.339 195.8 9.8 188 26.1
2009-12-08 16:16:14 51°25.639 2°54.285 195.8 10.3 191 24.6
2009-12-08 16:17:14 51°25.472 2°54.228 196.1 10.3 190 23.9
2009-12-08 16:18:14 51°25.306 2°54.174 195.9 10.3 191 23.9
2009-12-08 16:19:14 51°25.142 2°54.117 196.8 10.2 192 24.7
2009-12-08 16:20:14 51°24.977 2°54.06 196.6 10.1 194 22.6
2009-12-08 16:21:14 51°24.813 2°54.007 195.2 10.2 188 21.5
2009-12-08 16:22:15 51°24.648 2°53.947 196.7 9.8 196 20.3
2009-12-08 16:23:14 51°24.491 2°53.892 196.8 9.9 191 21.2
2009-12-08 16:24:15 51°24.325 2°53.84 196.2 10 191 21.9
2009-12-08 16:25:14 51°24.164 2°53.786 196.1 10.1 191 24
2009-12-08 16:26:14 51°24.003 2°53.738 196.1 9.9 193 24.5
2009-12-08 16:27:14 51°23.841 2°53.685 195.5 10 190 24.1
2009-12-08 16:28:14 51°23.681 2°53.633 196.3 9.6 193 22.4
2009-12-08 16:29:15 51°23.518 2°53.581 196.1 9.8 190 23.9
2009-12-08 16:30:14 51°23.362 2°53.529 197.3 9.7 195 23.2
2009-12-08 16:31:15 51°23.196 2°53.514 184.7 9.9 178 23.9
2009-12-08 16:32:14 51°23.03 2°53.549 179.5 10.2 173 23.9
2009-12-08 16:33:15 51°22.857 2°53.59 179.1 10.5 170 24.9
2009-12-08 16:34:14 51°22.689 2°53.62 181.6 10.3 173 25.9
2009-12-08 16:35:14 51°22.517 2°53.642 182.2 10.3 178 26.1
2009-12-08 16:36:14 51°22.345 2°53.662 182.7 10.3 176 25.1
2009-12-08 16:37:14 51°22.176 2°53.683 183.3 10.1 179 23.2
2009-12-08 16:38:14 51°22.006 2°53.675 189 10.3 183 22.4
2009-12-08 16:39:14 51°21.838 2°53.647 193.2 10.1 188 21.1
2009-12-08 16:40:26 51°21.637 2°53.603 193.2 10.2 187 20.1
2009-12-08 16:41:21 51°21.485 2°53.567 192.9 10.2 188 19.7
2009-12-08 16:42:26 51°21.304 2°53.525 193.6 9.9 188 19.5
2009-12-08 16:43:26 51°21.14 2°53.488 191.1 10.1 189 19.5
2009-12-08 16:44:26 51°20.973 2°53.448 192.4 10.2 188 19.6
2009-12-08 16:45:26 51°20.806 2°53.408 192.5 10.1 189 19.5
2009-12-08 16:46:26 51°20.641 2°53.365 192 10.1 187 19.6
2009-12-08 16:47:26 51°20.477 2°53.323 194.6 9.9 190 19.5
2009-12-08 16:48:26 51°20.316 2°53.264 196.1 10 195 19.5
2009-12-08 16:49:26 51°20.155 2°53.201 196.2 10 193 19
2009-12-08 16:50:26 51°19.995 2°53.142 196.1 9.9 193 19.3
2009-12-08 16:51:26 51°19.834 2°53.084 196.2 9.9 193 18.4
2009-12-08 16:52:26 51°19.673 2°53.026 196.1 9.9 191 18.2
2009-12-08 16:53:26 51°19.514 2°52.968 196.3 9.7 193 17.2
2009-12-08 16:54:26 51°19.355 2°52.911 196.6 9.7 194 17.1
2009-12-08 16:55:26 51°19.196 2°52.855 195.6 9.8 192 16.7
2009-12-08 16:56:26 51°19.038 2°52.797 197 9.7 192 15.5
2009-12-08 16:57:26 51°18.881 2°52.74 195.9 9.7 193 15.2
2009-12-08 16:58:26 51°18.721 2°52.68 196.5 9.8 194 14.9
2009-12-08 16:59:26 51°18.562 2°52.619 196.6 9.7 194 14.3
2009-12-08 17:00:25 51°18.406 2°52.559 195.4 9.8 192 14.3
2009-12-08 17:01:26 51°18.246 2°52.495 197 9.9 193 14.2
2009-12-08 17:02:26 51°18.086 2°52.44 193.1 9.8 192 13.6
2009-12-08 17:03:26 51°17.926 2°52.389 194.9 9.6 194 13.3
2009-12-08 17:04:26 51°17.769 2°52.336 194.7 9.8 190 13.4
2009-12-08 17:05:26 51°17.609 2°52.284 191.7 9.8 189 13.6
2009-12-08 17:06:26 51°17.445 2°52.254 187.3 10 184 14.3
2009-12-08 17:07:26 51°17.278 2°52.256 180.6 10.1 176 14.1
2009-12-08 17:08:26 51°17.109 2°52.294 174 10.2 173 13.2
2009-12-08 17:09:25 51°16.946 2°52.368 166.7 10.3 165 12.9
2009-12-08 17:10:26 51°16.783 2°52.473 163.9 10.5 157 13.9
2009-12-08 17:11:26 51°16.62 2°52.582 161.6 10.6 153 14.6
2009-12-08 17:12:26 51°16.459 2°52.701 161.4 10.7 154 15.3
2009-12-08 17:13:26 51°16.298 2°52.821 161.8 10.9 151 15.6
2009-12-08 17:14:26 51°16.136 2°52.935 164.8 10.5 159 15.4
2009-12-08 17:15:26 51°16.007 2°53.04 160.4 7.2 147 15.1
2009-12-08 17:16:26 51°15.922 2°53.176 137.8 7.5 127 15.1
2009-12-08 17:17:26 51°15.846 2°53.343 135.1 8.2 125 15.1
2009-12-08 17:18:25 51°15.757 2°53.51 140.1 8.6 132 14.9
2009-12-08 17:19:26 51°15.659 2°53.685 139.4 8.6 133 14.9
2009-12-08 17:20:26 51°15.556 2°53.858 139.9 9.2 136 14.5
2009-12-08 17:21:26 51°15.45 2°54.029 141.1 8.9 135 13.5
2009-12-08 17:22:26 51°15.35 2°54.192 141.3 8.6 132 12.9
2009-12-08 17:23:26 51°15.267 2°54.334 141.1 6.4 130 12.3
2009-12-08 17:24:26 51°15.215 2°54.441 141.4 4.3 127 12.1
2009-12-08 17:25:25 51°15.18 2°54.525 141.9 3.6 122 11.9
2009-12-08 17:26:26 51°15.153 2°54.603 142.3 3.2 117 11.8
2009-12-08 17:27:25 51°15.116 2°54.672 162 3.7 144 11.7
2009-12-08 17:28:26 51°15.06 2°54.736 162.8 4.2 145 11.8
2009-12-08 17:29:25 51°14.999 2°54.801 165.6 5.3 150 12.3
2009-12-08 17:30:26 51°14.879 2°54.878 166.6 9.8 164 12.4
2009-12-08 17:31:26 51°14.715 2°54.956 170.4 10.5 164 12.9
2009-12-08 17:32:26 51°14.55 2°55.011 177.9 9.8 177 13.1
2009-12-08 17:33:26 51°14.389 2°55.069 151.8 10.4 147 13.3
2009-12-08 17:34:26 51°14.258 2°55.26 133.1 10.7 135 13.7
2009-12-08 17:35:26 51°14.117 2°55.413 151.6 9.5 153 13.7
2009-12-08 17:36:26 51°13.988 2°55.509 153.4 7.5 155 13.7
2009-12-08 17:37:26 51°13.876 2°55.59 154.3 7.3 155 14.2
2009-12-08 17:38:25 51°13.777 2°55.678 140.4 5.9 140 14.8
2009-12-08 17:39:26 51°13.724 2°55.776 128.9 4.4 128 16.3
2009-12-08 17:40:26 51°13.687 2°55.868 116.7 3.9 115 12.1
2009-12-08 17:41:29 51°13.663 2°55.954 110.4 2 111 12.5